createdAt,value
2022-09-23T00:01:27.702Z,83.36
2022-09-23T00:03:56.534Z,83.34
2022-09-23T00:06:24.707Z,83.40
2022-09-23T00:08:53.034Z,83.51
2022-09-23T00:11:26.606Z,83.66
2022-09-23T00:13:56.238Z,83.56
2022-09-23T00:16:34.359Z,83.46
2022-09-23T00:19:04.422Z,83.73
2022-09-23T00:21:32.866Z,83.82
2022-09-23T00:24:02.424Z,83.28
2022-09-23T00:26:30.550Z,83.24
2022-09-23T00:28:58.659Z,83.64
2022-09-23T00:31:28.061Z,83.57
2022-09-23T00:34:01.396Z,83.47
2022-09-23T00:36:30.577Z,83.49
2022-09-23T00:39:00.207Z,83.23
2022-09-23T00:41:29.015Z,83.52
2022-09-23T00:44:01.310Z,83.54
2022-09-23T00:46:40.315Z,83.36
2022-09-23T00:49:15.770Z,83.11
2022-09-23T00:51:50.196Z,83.12
2022-09-23T00:54:20.062Z,83.20
2022-09-23T00:56:49.871Z,82.97
2022-09-23T00:59:18.118Z,83.12
2022-09-23T01:01:48.690Z,83.34
2022-09-23T01:04:16.930Z,83.30
2022-09-23T01:07:03.693Z,83.64
2022-09-23T01:09:37.652Z,83.15
2022-09-23T01:12:33.929Z,83.55
2022-09-23T01:15:19.207Z,83.50
2022-09-23T01:17:57.662Z,83.55
2022-09-23T01:20:56.022Z,83.70
2022-09-23T01:23:43.027Z,83.49
2022-09-23T01:26:52.236Z,83.69
2022-09-23T01:29:46.598Z,83.65
2022-09-23T01:32:37.564Z,83.67
2022-09-23T01:35:37.730Z,83.89
2022-09-23T01:38:47.069Z,83.98
2022-09-23T01:41:42.794Z,83.83
2022-09-23T01:44:18.954Z,84.11
2022-09-23T01:46:53.395Z,84.18
2022-09-23T01:49:31.779Z,84.28
2022-09-23T01:52:07.139Z,84.09
2022-09-23T01:54:40.244Z,84.23
2022-09-23T01:57:16.401Z,84.35
2022-09-23T01:59:56.161Z,83.99
2022-09-23T02:02:31.508Z,84.25
2022-09-23T02:05:11.957Z,84.37
2022-09-23T02:07:49.018Z,84.16
2022-09-23T02:10:24.152Z,84.26
2022-09-23T02:12:57.859Z,83.91
2022-09-23T02:15:32.037Z,83.81
2022-09-23T02:18:05.462Z,84.14
2022-09-23T02:20:36.802Z,84.46
2022-09-23T02:23:12.505Z,84.29
2022-09-23T02:25:54.244Z,84.05
2022-09-23T02:28:31.293Z,83.84
2022-09-23T02:31:16.508Z,83.74
2022-09-23T02:34:02.245Z,83.88
2022-09-23T02:36:39.947Z,83.96
2022-09-23T02:39:12.535Z,83.61
2022-09-23T02:42:12.829Z,83.61
2022-09-23T02:44:41.001Z,83.53
2022-09-23T02:47:10.647Z,83.44
2022-09-23T02:49:38.744Z,83.60
2022-09-23T02:52:07.726Z,83.58
2022-09-23T02:54:37.491Z,83.95
2022-09-23T02:57:08.391Z,83.73
2022-09-23T02:59:37.403Z,83.69
2022-09-23T03:02:23.366Z,83.90
2022-09-23T03:05:03.983Z,83.70
2022-09-23T03:07:59.600Z,83.82
2022-09-23T03:10:35.339Z,83.95
2022-09-23T03:13:26.082Z,84.07
2022-09-23T03:16:12.681Z,84.05
2022-09-23T03:18:51.287Z,84.35
2022-09-23T03:21:57.075Z,84.56
2022-09-23T03:24:25.790Z,84.64
2022-09-23T03:26:55.524Z,84.61
2022-09-23T03:29:24.076Z,84.57
2022-09-23T03:31:53.462Z,84.89
2022-09-23T03:34:28.431Z,85.04
2022-09-23T03:37:32.032Z,85.11
2022-09-23T03:40:24.212Z,85.33
2022-09-23T03:42:54.109Z,85.18
2022-09-23T03:45:27.721Z,85.31
2022-09-23T03:47:55.635Z,85.25
2022-09-23T03:50:24.256Z,85.37
2022-09-23T03:52:52.290Z,85.49
2022-09-23T03:55:21.413Z,85.42
2022-09-23T03:57:49.541Z,85.23
2022-09-23T04:00:17.835Z,85.18
2022-09-23T04:02:46.055Z,85.08
2022-09-23T04:05:14.470Z,85.09
2022-09-23T04:07:42.714Z,84.80
2022-09-23T04:10:11.202Z,84.70
2022-09-23T04:12:39.358Z,84.45
2022-09-23T04:15:07.701Z,84.72
2022-09-23T04:17:35.774Z,84.98
2022-09-23T04:20:04.381Z,85.23
2022-09-23T04:22:38.711Z,84.97
2022-09-23T04:25:07.733Z,85.04
2022-09-23T04:27:37.893Z,85.06
2022-09-23T04:30:07.167Z,84.98
2022-09-23T04:32:36.633Z,85.25
2022-09-23T04:35:06.187Z,85.26
2022-09-23T04:37:34.262Z,85.40
2022-09-23T04:40:03.497Z,85.63
2022-09-23T04:42:31.565Z,85.46
2022-09-23T04:44:59.669Z,85.57
2022-09-23T04:47:28.463Z,85.46
2022-09-23T04:49:59.704Z,85.27
2022-09-23T04:52:30.125Z,85.74
2022-09-23T04:54:58.215Z,85.81
2022-09-23T04:57:26.516Z,86.15
2022-09-23T04:59:56.216Z,86.59
2022-09-23T05:02:24.952Z,86.57
2022-09-23T05:04:53.235Z,86.85
2022-09-23T05:07:21.391Z,86.90
2022-09-23T05:09:49.599Z,87.28
2022-09-23T05:12:17.659Z,87.12
2022-09-23T05:14:45.723Z,87.36
2022-09-23T05:17:14.843Z,87.24
2022-09-23T05:19:42.942Z,87.52
2022-09-23T05:22:11.003Z,87.46
2022-09-23T05:24:39.086Z,87.63
2022-09-23T05:27:07.631Z,87.32
2022-09-23T05:29:35.823Z,87.21
2022-09-23T05:32:03.953Z,87.20
2022-09-23T05:34:32.449Z,87.07
2022-09-23T05:37:00.642Z,87.47
2022-09-23T05:39:29.526Z,87.14
2022-09-23T05:41:59.154Z,87.10
2022-09-23T05:44:28.122Z,87.07
2022-09-23T05:46:57.117Z,86.81
2022-09-23T05:49:42.585Z,86.95
2022-09-23T05:52:13.936Z,86.92
2022-09-23T05:54:42.282Z,86.88
2022-09-23T05:57:10.925Z,86.79
2022-09-23T05:59:39.190Z,86.85
2022-09-23T06:02:09.497Z,87.02
2022-09-23T06:04:37.713Z,86.39
2022-09-23T06:07:06.214Z,86.38
2022-09-23T06:09:36.667Z,86.41
2022-09-23T06:12:06.593Z,86.64
2022-09-23T06:14:34.751Z,86.42
2022-09-23T06:17:03.145Z,86.19
2022-09-23T06:19:31.353Z,86.28
2022-09-23T06:21:59.567Z,85.91
2022-09-23T06:24:31.234Z,86.35
2022-09-23T06:27:01.127Z,86.01
2022-09-23T06:29:30.988Z,85.65
2022-09-23T06:31:59.880Z,85.46
2022-09-23T06:34:28.196Z,85.36
2022-09-23T06:36:56.431Z,85.54
2022-09-23T06:39:24.761Z,85.61
2022-09-23T06:41:52.988Z,85.39
2022-09-23T06:44:21.244Z,85.10
2022-09-23T06:46:51.717Z,84.88
2022-09-23T06:49:22.976Z,84.98
2022-09-23T06:51:51.429Z,85.03
2022-09-23T06:54:20.664Z,84.74
2022-09-23T06:56:49.142Z,84.54
2022-09-23T06:59:18.921Z,84.39
2022-09-23T07:01:48.493Z,84.56
2022-09-23T07:04:17.162Z,84.32
2022-09-23T07:06:45.575Z,84.09
2022-09-23T07:09:13.909Z,84.11
2022-09-23T07:11:42.379Z,83.87
2022-09-23T07:14:11.067Z,83.94
2022-09-23T07:16:39.695Z,84.06
2022-09-23T07:19:08.232Z,83.85
2022-09-23T07:21:37.851Z,83.59
2022-09-23T07:24:07.468Z,83.35
2022-09-23T07:26:35.890Z,83.46
2022-09-23T07:29:07.116Z,83.05
2022-09-23T07:31:39.523Z,82.89
2022-09-23T07:34:11.861Z,82.61
2022-09-23T07:36:41.350Z,82.15
2022-09-23T07:39:12.259Z,82.00
2022-09-23T07:41:44.679Z,81.55
2022-09-23T07:44:13.516Z,81.18
2022-09-23T07:46:41.866Z,80.72
2022-09-23T07:49:10.770Z,80.24
2022-09-23T07:51:41.122Z,80.18
2022-09-23T07:54:14.767Z,79.85
2022-09-23T07:56:43.922Z,79.35
2022-09-23T07:59:18.421Z,78.82
2022-09-23T08:01:49.698Z,78.58
2022-09-23T08:04:22.906Z,77.86
2022-09-23T08:06:56.829Z,77.71
2022-09-23T08:09:28.621Z,77.60
2022-09-23T08:11:56.725Z,77.80
2022-09-23T08:14:25.132Z,77.49
2022-09-23T08:16:54.239Z,77.19
2022-09-23T08:19:22.423Z,76.90
2022-09-23T08:21:52.328Z,76.89
2022-09-23T08:24:24.272Z,75.86
2022-09-23T08:26:54.401Z,75.09
2022-09-23T08:29:24.689Z,74.84
2022-09-23T08:31:53.407Z,74.02
2022-09-23T08:34:22.845Z,73.76
2022-09-23T08:36:52.508Z,73.59
2022-09-23T08:39:20.925Z,72.64
2022-09-23T08:42:13.694Z,71.81
2022-09-23T08:44:55.302Z,71.70
2022-09-23T08:47:44.894Z,71.55
2022-09-23T08:50:18.107Z,71.30
2022-09-23T08:52:55.181Z,71.31
2022-09-23T08:55:48.078Z,69.61
2022-09-23T08:58:45.451Z,69.29
2022-09-23T09:01:31.661Z,67.13
2022-09-23T09:04:14.659Z,66.79
2022-09-23T09:07:12.294Z,67.49
2022-09-23T09:09:53.586Z,67.29
2022-09-23T09:12:29.471Z,67.68
2022-09-23T09:15:20.647Z,68.20
2022-09-23T09:18:20.086Z,68.64
2022-09-23T09:21:08.663Z,68.95
2022-09-23T09:23:56.646Z,68.96
2022-09-23T09:26:27.997Z,68.78
2022-09-23T09:29:31.204Z,69.49
2022-09-23T09:32:16.885Z,68.65
2022-09-23T09:34:54.788Z,67.44
2022-09-23T09:37:44.749Z,66.28
2022-09-23T09:40:15.282Z,65.03
2022-09-23T09:42:48.626Z,62.87
2022-09-23T09:45:57.712Z,61.57
2022-09-23T09:49:00.818Z,58.94
2022-09-23T09:51:29.975Z,55.49
2022-09-23T09:54:23.394Z,51.41
2022-09-23T09:56:52.746Z,53.66
2022-09-23T09:59:27.567Z,52.51
2022-09-23T10:02:14.255Z,50.50
2022-09-23T10:04:42.901Z,50.52
2022-09-23T10:07:15.980Z,48.11
2022-09-23T10:09:55.777Z,48.87
2022-09-23T10:12:27.012Z,48.94
2022-09-23T10:14:58.219Z,49.74
2022-09-23T10:17:32.307Z,49.01
2022-09-23T10:20:03.125Z,50.26
2022-09-23T10:22:39.186Z,50.98
2022-09-23T10:25:10.609Z,52.01
2022-09-23T10:27:39.035Z,52.22
2022-09-23T10:30:24.228Z,52.74
2022-09-23T10:32:55.117Z,53.00
2022-09-23T10:35:25.243Z,53.78
2022-09-23T10:37:59.896Z,54.35
2022-09-23T10:41:01.852Z,54.59
2022-09-23T10:43:57.995Z,55.00
2022-09-23T10:46:41.447Z,55.55
2022-09-23T10:49:28.506Z,56.17
2022-09-23T10:52:16.214Z,56.43
2022-09-23T10:55:21.433Z,56.79
2022-09-23T10:58:00.061Z,56.78
2022-09-23T11:00:37.961Z,57.26
2022-09-23T11:03:18.722Z,57.55
2022-09-23T11:05:49.783Z,57.81
2022-09-23T11:08:59.404Z,58.04
2022-09-23T11:12:08.962Z,57.90
2022-09-23T11:15:01.730Z,58.39
2022-09-23T11:18:03.476Z,58.58
2022-09-23T11:20:36.360Z,58.70
2022-09-23T11:23:22.664Z,58.78
2022-09-23T11:26:17.239Z,59.21
2022-09-23T11:28:56.929Z,58.96
2022-09-23T11:31:43.621Z,59.53
2022-09-23T11:34:26.688Z,59.55
2022-09-23T11:37:12.819Z,59.45
2022-09-23T11:39:50.218Z,59.51
2022-09-23T11:42:25.225Z,59.44
2022-09-23T11:45:02.851Z,59.46
2022-09-23T11:47:39.963Z,59.25
2022-09-23T11:50:34.915Z,59.25
2022-09-23T11:53:05.857Z,59.22
2022-09-23T11:55:56.345Z,59.51
2022-09-23T12:01:37.615Z,59.22
2022-09-23T12:04:33.213Z,59.09
2022-09-23T12:07:06.512Z,58.80
2022-09-23T12:09:59.838Z,58.70
2022-09-23T12:13:03.202Z,58.42
2022-09-23T12:15:34.530Z,58.49
2022-09-23T12:18:26.979Z,58.53
2022-09-23T12:21:18.165Z,58.55
2022-09-23T12:24:19.257Z,58.01
2022-09-23T12:26:54.200Z,58.05
2022-09-23T12:29:26.916Z,58.09
2022-09-23T12:31:55.733Z,58.44
2022-09-23T12:34:30.645Z,58.19
2022-09-23T12:37:04.147Z,58.28
2022-09-23T12:39:35.593Z,57.90
2022-09-23T12:42:06.676Z,58.37
2022-09-23T12:44:39.270Z,58.34
2022-09-23T12:47:29.015Z,58.32
2022-09-23T12:49:57.392Z,58.55
2022-09-23T12:52:33.557Z,58.70
2022-09-23T12:55:20.832Z,58.47
2022-09-23T12:57:49.438Z,58.00
2022-09-23T13:00:20.583Z,58.26
2022-09-23T13:03:11.313Z,58.70
2022-09-23T13:06:04.094Z,58.72
2022-09-23T13:08:36.026Z,58.79
2022-09-23T13:11:13.399Z,59.11
2022-09-23T13:13:44.615Z,59.67
2022-09-23T13:16:42.333Z,60.03
2022-09-23T13:19:25.736Z,60.09
2022-09-23T13:21:54.143Z,60.30
2022-09-23T13:24:25.128Z,60.40
2022-09-23T13:26:55.676Z,59.83
2022-09-23T13:29:28.116Z,59.96
2022-09-23T13:31:58.047Z,60.77
2022-09-23T13:34:32.348Z,60.77
2022-09-23T13:37:22.201Z,60.72
2022-09-23T13:39:51.431Z,60.47
2022-09-23T13:42:40.053Z,59.97
2022-09-23T13:45:16.073Z,59.44
2022-09-23T13:47:45.861Z,59.04
2022-09-23T13:50:19.830Z,59.03
2022-09-23T13:53:01.207Z,58.70
2022-09-23T13:55:37.560Z,58.41
2022-09-23T13:58:17.487Z,58.39
2022-09-23T14:00:46.291Z,58.55
2022-09-23T14:03:36.247Z,58.38
2022-09-23T14:06:14.368Z,57.86
2022-09-23T14:08:47.539Z,57.62
2022-09-23T14:11:21.622Z,58.09
2022-09-23T14:13:55.160Z,58.25
2022-09-23T14:16:26.953Z,58.32
2022-09-23T14:19:00.596Z,58.18
2022-09-23T14:21:35.453Z,58.48
2022-09-23T14:24:33.453Z,58.97
2022-09-23T14:27:15.224Z,59.55
2022-09-23T14:29:46.931Z,59.60
2022-09-23T14:32:25.460Z,59.78
2022-09-23T14:35:00.509Z,60.11
2022-09-23T14:38:33.553Z,60.60
2022-09-23T14:41:17.614Z,60.64
2022-09-23T14:43:49.106Z,61.36
2022-09-23T14:46:22.948Z,61.45
2022-09-23T14:48:58.537Z,62.00
2022-09-23T14:51:45.766Z,62.53
2022-09-23T14:54:40.280Z,62.73
2022-09-23T14:57:25.723Z,62.96
2022-09-23T14:59:53.807Z,63.03
2022-09-23T15:02:39.400Z,63.58
2022-09-23T15:05:22.922Z,63.40
2022-09-23T15:07:53.157Z,63.93
2022-09-23T15:10:30.590Z,63.83
2022-09-23T15:13:14.571Z,63.79
2022-09-23T15:15:42.813Z,64.05
2022-09-23T15:18:19.927Z,64.78
2022-09-23T15:20:52.439Z,65.01
2022-09-23T15:23:57.909Z,65.13
2022-09-23T15:26:45.411Z,65.14
2022-09-23T15:29:13.843Z,65.23
2022-09-23T15:31:42.829Z,65.17
2022-09-23T15:34:11.329Z,64.94
2022-09-23T15:36:40.151Z,65.01
2022-09-23T15:39:11.498Z,64.89
2022-09-23T15:41:39.734Z,65.28
2022-09-23T15:44:17.317Z,65.48
2022-09-23T15:46:47.331Z,65.56
2022-09-23T15:49:28.692Z,65.53
2022-09-23T15:52:00.973Z,65.90
2022-09-23T15:54:30.401Z,65.96
2022-09-23T15:56:58.819Z,65.97
2022-09-23T15:59:28.783Z,66.12
2022-09-23T16:01:59.268Z,66.11
2022-09-23T16:04:28.378Z,66.36
2022-09-23T16:06:58.497Z,66.37
2022-09-23T16:09:31.013Z,66.43
2022-09-23T16:12:02.875Z,66.43
2022-09-23T16:14:31.326Z,66.70
2022-09-23T16:16:59.709Z,66.70
2022-09-23T16:19:28.044Z,67.16
2022-09-23T16:21:56.230Z,67.03
2022-09-23T16:24:28.017Z,67.30
2022-09-23T16:27:00.151Z,67.40
2022-09-23T16:29:28.437Z,67.53
2022-09-23T16:31:56.541Z,68.01
2022-09-23T16:34:25.104Z,68.12
2022-09-23T16:36:53.678Z,68.28
2022-09-23T16:39:23.068Z,68.46
2022-09-23T16:41:51.771Z,68.91
2022-09-23T16:44:20.394Z,69.06
2022-09-23T16:46:49.210Z,69.63
2022-09-23T16:49:18.165Z,69.78
2022-09-23T16:51:46.254Z,70.17
2022-09-23T16:54:14.447Z,70.60
2022-09-23T16:56:46.810Z,71.04
2022-09-23T16:59:16.498Z,71.72
2022-09-23T17:02:03.723Z,72.16
2022-09-23T17:04:32.148Z,72.44
2022-09-23T17:07:00.405Z,72.77
2022-09-23T17:09:29.109Z,72.92
2022-09-23T17:12:23.310Z,73.32
2022-09-23T17:14:52.664Z,73.55
2022-09-23T17:17:21.254Z,73.79
2022-09-23T17:19:49.462Z,74.04
2022-09-23T17:22:17.584Z,74.23
2022-09-23T17:24:45.811Z,74.51
2022-09-23T17:27:15.740Z,74.74
2022-09-23T17:29:44.616Z,75.04
2022-09-23T17:32:12.861Z,75.12
2022-09-23T17:34:44.079Z,75.16
2022-09-23T17:37:12.544Z,75.40
2022-09-23T17:39:42.525Z,75.53
2022-09-23T17:42:10.633Z,75.62
2022-09-23T17:44:38.793Z,75.89
2022-09-23T17:47:07.090Z,76.08
2022-09-23T17:49:35.537Z,76.15
2022-09-23T17:52:05.562Z,76.50
2022-09-23T17:54:33.776Z,76.61
2022-09-23T17:57:02.977Z,76.49
2022-09-23T17:59:31.306Z,76.48
2022-09-23T18:01:59.494Z,76.58
2022-09-23T18:04:27.920Z,77.13
2022-09-23T18:06:56.097Z,77.09
2022-09-23T18:09:24.553Z,77.34
2022-09-23T18:11:52.724Z,77.33
2022-09-23T18:14:23.018Z,77.41
2022-09-23T18:16:53.808Z,77.71
2022-09-23T18:19:24.519Z,77.70
2022-09-23T18:21:56.154Z,77.78
2022-09-23T18:24:32.443Z,77.91
2022-09-23T18:27:01.838Z,78.02
2022-09-23T18:29:30.424Z,77.90
2022-09-23T18:31:59.541Z,77.96
2022-09-23T18:34:29.356Z,78.00
2022-09-23T18:36:57.589Z,78.01
2022-09-23T18:39:26.097Z,78.16
2022-09-23T18:41:54.944Z,78.21
2022-09-23T18:44:23.591Z,78.31
2022-09-23T18:46:52.130Z,78.39
2022-09-23T18:49:39.021Z,78.40
2022-09-23T18:52:07.278Z,78.37
2022-09-23T18:54:35.377Z,78.54
2022-09-23T18:57:05.403Z,79.01
2022-09-23T18:59:33.795Z,78.94
2022-09-23T19:02:02.584Z,78.87
2022-09-23T19:04:31.065Z,79.17
2022-09-23T19:06:59.357Z,79.30
2022-09-23T19:09:27.667Z,79.57
2022-09-23T19:11:57.001Z,79.68
2022-09-23T19:14:25.345Z,79.64
2022-09-23T19:16:53.797Z,79.87
2022-09-23T19:19:21.949Z,79.87
2022-09-23T19:21:50.039Z,79.88
2022-09-23T19:24:20.614Z,79.96
2022-09-23T19:26:48.992Z,80.07
2022-09-23T19:29:22.082Z,79.93
2022-09-23T19:31:51.245Z,80.12
2022-09-23T19:34:23.975Z,80.32
2022-09-23T19:36:53.042Z,80.37
2022-09-23T19:39:23.161Z,80.36
2022-09-23T19:41:56.055Z,80.17
2022-09-23T19:44:28.129Z,80.34
2022-09-23T19:46:57.472Z,80.63
2022-09-23T19:49:26.247Z,80.68
2022-09-23T19:51:56.168Z,80.70
2022-09-23T19:54:27.592Z,80.70
2022-09-23T19:56:56.105Z,80.64
2022-09-23T19:59:26.551Z,80.60
2022-09-23T20:01:55.289Z,80.61
2022-09-23T20:04:23.849Z,80.64
2022-09-23T20:06:52.327Z,80.80
2022-09-23T20:09:21.076Z,80.96
2022-09-23T20:11:49.858Z,81.01
2022-09-23T20:14:19.901Z,80.94
2022-09-23T20:16:48.220Z,80.99
2022-09-23T20:19:16.352Z,81.04
2022-09-23T20:21:45.202Z,81.25
2022-09-23T20:24:13.352Z,81.32
2022-09-23T20:26:59.966Z,81.31
2022-09-23T20:29:28.237Z,81.41
2022-09-23T20:31:58.740Z,81.52
2022-09-23T20:34:30.073Z,81.54
2022-09-23T20:36:59.381Z,81.54
2022-09-23T20:39:28.153Z,81.64
2022-09-23T20:41:56.340Z,81.72
2022-09-23T20:44:24.542Z,81.49
2022-09-23T20:46:52.811Z,81.68
2022-09-23T20:49:21.009Z,81.91
2022-09-23T20:51:49.327Z,81.87
2022-09-23T20:54:21.083Z,81.89
2022-09-23T20:56:49.221Z,81.98
2022-09-23T20:59:18.715Z,82.13
2022-09-23T21:01:47.894Z,81.81
2022-09-23T21:04:16.530Z,82.00
2022-09-23T21:06:45.031Z,81.97
2022-09-23T21:09:13.214Z,82.34
2022-09-23T21:11:41.302Z,82.42
2022-09-23T21:14:10.145Z,82.32
2022-09-23T21:16:38.780Z,82.04
2022-09-23T21:19:10.649Z,82.26
2022-09-23T21:21:39.279Z,82.08
2022-09-23T21:24:36.011Z,82.31
2022-09-23T21:26:55.651Z,82.31
2022-09-23T21:29:23.987Z,82.26
2022-09-23T21:31:52.243Z,82.29
2022-09-23T21:34:20.401Z,82.45
2022-09-23T21:36:48.635Z,82.57
2022-09-23T21:39:16.806Z,82.53
2022-09-23T21:41:45.376Z,82.40
2022-09-23T21:44:13.543Z,82.59
2022-09-23T21:46:41.997Z,82.69
2022-09-23T21:49:10.272Z,82.77
2022-09-23T21:51:41.273Z,82.77
2022-09-23T21:54:16.110Z,82.86
2022-09-23T21:56:44.480Z,82.76
2022-09-23T21:59:12.659Z,83.05
2022-09-23T22:01:49.387Z,82.81
2022-09-23T22:04:21.984Z,82.91
2022-09-23T22:06:50.126Z,82.95
2022-09-23T22:09:20.546Z,83.04
2022-09-23T22:12:07.538Z,83.01
2022-09-23T22:14:36.470Z,83.18
2022-09-23T22:17:06.721Z,83.22
2022-09-23T22:19:40.285Z,83.42
2022-09-23T22:22:13.556Z,83.42
2022-09-23T22:24:43.947Z,83.52
2022-09-23T22:27:14.217Z,83.66
2022-09-23T22:30:00.652Z,83.74
2022-09-23T22:32:41.177Z,83.53
2022-09-23T22:35:11.812Z,83.71
2022-09-23T22:37:39.898Z,83.71
2022-09-23T22:40:15.570Z,83.90
2022-09-23T22:42:44.446Z,83.86
2022-09-23T22:45:13.646Z,83.76
2022-09-23T22:47:45.603Z,83.99
2022-09-23T22:50:15.408Z,84.03
2022-09-23T22:52:45.101Z,84.19
2022-09-23T22:55:13.555Z,84.12
2022-09-23T22:57:41.707Z,84.03
2022-09-23T23:00:11.545Z,84.09
2022-09-23T23:02:40.288Z,84.10
2022-09-23T23:05:08.876Z,84.15
2022-09-23T23:07:39.880Z,84.09
2022-09-23T23:10:10.277Z,84.45
2022-09-23T23:12:39.610Z,84.32
2022-09-23T23:15:11.783Z,84.29
2022-09-23T23:17:43.361Z,84.34
2022-09-23T23:20:11.476Z,84.31
2022-09-23T23:22:39.583Z,84.33
2022-09-23T23:25:08.107Z,84.53
2022-09-23T23:27:36.255Z,84.44
2022-09-23T23:30:04.687Z,84.30
2022-09-23T23:32:32.956Z,84.38
2022-09-23T23:35:01.094Z,84.43
2022-09-23T23:37:29.683Z,84.52
2022-09-23T23:39:57.807Z,84.72
2022-09-23T23:42:27.374Z,84.50
2022-09-23T23:44:55.409Z,84.20
2022-09-23T23:47:24.400Z,84.51
2022-09-23T23:49:54.375Z,84.74
2022-09-23T23:52:22.563Z,84.87
2022-09-23T23:54:52.508Z,84.52
2022-09-23T23:57:20.647Z,84.60
2022-09-23T23:59:48.731Z,84.80
